Yale, Virginia
Current Conditions -  °F | °C
As of 2:55 PM on Wednesday 28 Jan 2015 (Local Time) from KEMV Reporting Station
Clear Clear  
Wind Chill:   Ceiling: Unl
Heat Index:   Visibility: 10mi
Dew Point: -13°   Wind: 10mph
Humidity: 26%   Direction: 310°NW
Pressure: 30.23"   Gusts: NA
Location:  36.85°N, 77.29°W
Report Text: KEMV 281955Z AUTO 31009KT 10SM CLR 05/M13 A3023 RMK AO2
Loading
Personal Weather Stations






























Interactive Weather Map New forecast layout! Learn more

10-Day Weather Forecast

Advertisements
Track Severe Weather on mobile